sensor_id;sensor_type;location;lat;lon;timestamp;temperature;humidity
15596;DHT22;7898;48.658;9.068;2022-08-21T00:02:14;13.80;99.90
15596;DHT22;7898;48.658;9.068;2022-08-21T00:04:41;13.80;99.90
15596;DHT22;7898;48.658;9.068;2022-08-21T00:07:08;13.60;99.90
15596;DHT22;7898;48.658;9.068;2022-08-21T00:09:35;13.60;99.90
15596;DHT22;7898;48.658;9.068;2022-08-21T00:12:03;13.50;99.90
15596;DHT22;7898;48.658;9.068;2022-08-21T00:14:32;13.40;99.90
15596;DHT22;7898;48.658;9.068;2022-08-21T00:16:59;13.30;99.90
15596;DHT22;7898;48.658;9.068;2022-08-21T00:19:27;13.30;99.90
15596;DHT22;7898;48.658;9.068;2022-08-21T00:21:54;13.30;99.90
15596;DHT22;7898;48.658;9.068;2022-08-21T00:24:22;13.30;99.90
15596;DHT22;7898;48.658;9.068;2022-08-21T00:26:49;13.30;99.90
15596;DHT22;7898;48.658;9.068;2022-08-21T00:29:17;13.30;99.90
15596;DHT22;7898;48.658;9.068;2022-08-21T00:31:46;13.30;99.90
15596;DHT22;7898;48.658;9.068;2022-08-21T00:34:13;13.30;99.90
15596;DHT22;7898;48.658;9.068;2022-08-21T00:36:40;13.30;99.90
15596;DHT22;7898;48.658;9.068;2022-08-21T00:39:08;13.30;99.90
15596;DHT22;7898;48.658;9.068;2022-08-21T00:41:37;13.30;99.90
15596;DHT22;7898;48.658;9.068;2022-08-21T00:44:05;13.30;99.90
15596;DHT22;7898;48.658;9.068;2022-08-21T00:46:32;13.30;99.90
15596;DHT22;7898;48.658;9.068;2022-08-21T00:49:00;13.20;99.90
15596;DHT22;7898;48.658;9.068;2022-08-21T00:51:32;13.10;99.90
15596;DHT22;7898;48.658;9.068;2022-08-21T00:54:03;13.00;99.90
15596;DHT22;7898;48.658;9.068;2022-08-21T00:56:30;13.00;99.90
15596;DHT22;7898;48.658;9.068;2022-08-21T00:58:58;12.90;99.90
15596;DHT22;7898;48.658;9.068;2022-08-21T01:01:25;12.80;99.90
15596;DHT22;7898;48.658;9.068;2022-08-21T01:03:53;12.70;99.90
15596;DHT22;7898;48.658;9.068;2022-08-21T01:06:21;12.70;99.90
15596;DHT22;7898;48.658;9.068;2022-08-21T01:08:48;12.70;99.90
15596;DHT22;7898;48.658;9.068;2022-08-21T01:11:16;12.70;99.90
15596;DHT22;7898;48.658;9.068;2022-08-21T01:13:43;12.60;99.90
15596;DHT22;7898;48.658;9.068;2022-08-21T01:16:14;12.50;99.90
15596;DHT22;7898;48.658;9.068;2022-08-21T01:18:43;12.50;99.90
15596;DHT22;7898;48.658;9.068;2022-08-21T01:21:14;12.50;99.90
15596;DHT22;7898;48.658;9.068;2022-08-21T01:23:44;12.50;99.90
15596;DHT22;7898;48.658;9.068;2022-08-21T01:26:13;12.50;99.90
15596;DHT22;7898;48.658;9.068;2022-08-21T01:28:46;12.50;99.90
15596;DHT22;7898;48.658;9.068;2022-08-21T01:31:15;12.50;99.90
15596;DHT22;7898;48.658;9.068;2022-08-21T01:33:43;12.40;99.90
15596;DHT22;7898;48.658;9.068;2022-08-21T01:36:11;12.40;99.90
15596;DHT22;7898;48.658;9.068;2022-08-21T01:38:38;12.40;99.90
15596;DHT22;7898;48.658;9.068;2022-08-21T01:41:05;12.40;99.90
15596;DHT22;7898;48.658;9.068;2022-08-21T01:43:32;12.40;99.90
15596;DHT22;7898;48.658;9.068;2022-08-21T01:45:59;12.40;99.90
15596;DHT22;7898;48.658;9.068;2022-08-21T01:48:26;12.40;99.90
15596;DHT22;7898;48.658;9.068;2022-08-21T01:50:53;12.40;99.90
15596;DHT22;7898;48.658;9.068;2022-08-21T01:53:21;12.30;99.90
15596;DHT22;7898;48.658;9.068;2022-08-21T01:55:48;12.30;99.90
15596;DHT22;7898;48.658;9.068;2022-08-21T01:58:15;12.30;99.90
15596;DHT22;7898;48.658;9.068;2022-08-21T02:00:42;12.30;99.90
15596;DHT22;7898;48.658;9.068;2022-08-21T02:03:09;12.30;99.90
15596;DHT22;7898;48.658;9.068;2022-08-21T02:05:35;12.30;99.90
15596;DHT22;7898;48.658;9.068;2022-08-21T02:08:03;12.30;99.90
15596;DHT22;7898;48.658;9.068;2022-08-21T02:10:33;12.20;99.90
15596;DHT22;7898;48.658;9.068;2022-08-21T02:13:00;12.30;99.90
15596;DHT22;7898;48.658;9.068;2022-08-21T02:15:28;12.20;99.90
15596;DHT22;7898;48.658;9.068;2022-08-21T02:17:59;12.10;99.90
15596;DHT22;7898;48.658;9.068;2022-08-21T02:20:28;12.10;99.90
15596;DHT22;7898;48.658;9.068;2022-08-21T02:22:55;12.10;99.90
15596;DHT22;7898;48.658;9.068;2022-08-21T02:25:24;12.10;99.90
15596;DHT22;7898;48.658;9.068;2022-08-21T02:27:53;12.00;99.90
15596;DHT22;7898;48.658;9.068;2022-08-21T02:30:22;11.90;99.90
15596;DHT22;7898;48.658;9.068;2022-08-21T02:32:50;11.90;99.90
15596;DHT22;7898;48.658;9.068;2022-08-21T02:35:17;11.90;99.90
15596;DHT22;7898;48.658;9.068;2022-08-21T02:37:46;11.90;99.90
15596;DHT22;7898;48.658;9.068;2022-08-21T02:40:13;11.80;99.90
15596;DHT22;7898;48.658;9.068;2022-08-21T02:42:41;11.80;99.90
15596;DHT22;7898;48.658;9.068;2022-08-21T02:45:11;11.90;99.90
15596;DHT22;7898;48.658;9.068;2022-08-21T02:47:39;11.80;99.90
15596;DHT22;7898;48.658;9.068;2022-08-21T02:50:07;11.80;99.90
15596;DHT22;7898;48.658;9.068;2022-08-21T02:52:34;11.80;99.90
15596;DHT22;7898;48.658;9.068;2022-08-21T02:55:02;11.80;99.90
15596;DHT22;7898;48.658;9.068;2022-08-21T02:57:30;11.80;99.90
15596;DHT22;7898;48.658;9.068;2022-08-21T02:59:58;11.80;99.90
15596;DHT22;7898;48.658;9.068;2022-08-21T03:02:26;11.70;99.90
15596;DHT22;7898;48.658;9.068;2022-08-21T03:04:53;11.60;99.90
15596;DHT22;7898;48.658;9.068;2022-08-21T03:07:20;11.60;99.90
15596;DHT22;7898;48.658;9.068;2022-08-21T03:09:47;11.60;99.90
15596;DHT22;7898;48.658;9.068;2022-08-21T03:12:14;11.50;99.90
15596;DHT22;7898;48.658;9.068;2022-08-21T03:14:41;11.60;99.90
15596;DHT22;7898;48.658;9.068;2022-08-21T03:17:07;11.50;99.90
15596;DHT22;7898;48.658;9.068;2022-08-21T03:19:36;11.40;99.90
15596;DHT22;7898;48.658;9.068;2022-08-21T03:22:03;11.40;99.90
15596;DHT22;7898;48.658;9.068;2022-08-21T03:24:30;11.40;99.90
15596;DHT22;7898;48.658;9.068;2022-08-21T03:26:57;11.40;99.90
15596;DHT22;7898;48.658;9.068;2022-08-21T03:29:25;11.40;99.90
15596;DHT22;7898;48.658;9.068;2022-08-21T03:31:52;11.40;99.90
15596;DHT22;7898;48.658;9.068;2022-08-21T03:34:20;11.40;99.90
15596;DHT22;7898;48.658;9.068;2022-08-21T03:36:48;11.40;99.90
15596;DHT22;7898;48.658;9.068;2022-08-21T03:39:16;11.40;99.90
15596;DHT22;7898;48.658;9.068;2022-08-21T03:41:44;11.30;99.90
15596;DHT22;7898;48.658;9.068;2022-08-21T03:44:11;11.20;99.90
15596;DHT22;7898;48.658;9.068;2022-08-21T03:46:38;11.20;99.90
15596;DHT22;7898;48.658;9.068;2022-08-21T03:49:05;11.20;99.90
15596;DHT22;7898;48.658;9.068;2022-08-21T03:51:33;11.20;99.90
15596;DHT22;7898;48.658;9.068;2022-08-21T03:54:02;11.10;99.90
15596;DHT22;7898;48.658;9.068;2022-08-21T03:56:30;11.10;99.90
15596;DHT22;7898;48.658;9.068;2022-08-21T03:58:57;11.10;99.90
15596;DHT22;7898;48.658;9.068;2022-08-21T04:01:24;11.10;99.90
15596;DHT22;7898;48.658;9.068;2022-08-21T04:03:51;11.10;99.90
15596;DHT22;7898;48.658;9.068;2022-08-21T04:06:18;11.10;99.90
15596;DHT22;7898;48.658;9.068;2022-08-21T04:08:45;11.00;99.90
15596;DHT22;7898;48.658;9.068;2022-08-21T04:11:13;11.10;99.90
15596;DHT22;7898;48.658;9.068;2022-08-21T04:13:41;11.10;99.90
15596;DHT22;7898;48.658;9.068;2022-08-21T04:16:08;11.00;99.90
15596;DHT22;7898;48.658;9.068;2022-08-21T04:18:35;11.00;99.90
15596;DHT22;7898;48.658;9.068;2022-08-21T04:21:03;11.00;99.90
15596;DHT22;7898;48.658;9.068;2022-08-21T04:23:30;11.00;99.90
15596;DHT22;7898;48.658;9.068;2022-08-21T04:25:57;11.00;99.90
15596;DHT22;7898;48.658;9.068;2022-08-21T04:28:26;10.90;99.90
15596;DHT22;7898;48.658;9.068;2022-08-21T04:30:54;10.90;99.90
15596;DHT22;7898;48.658;9.068;2022-08-21T04:33:22;11.00;99.90
15596;DHT22;7898;48.658;9.068;2022-08-21T04:35:49;11.00;99.90
15596;DHT22;7898;48.658;9.068;2022-08-21T04:38:17;10.90;99.90
15596;DHT22;7898;48.658;9.068;2022-08-21T04:40:44;11.00;99.90
15596;DHT22;7898;48.658;9.068;2022-08-21T04:43:11;11.00;99.90
15596;DHT22;7898;48.658;9.068;2022-08-21T04:45:42;11.10;99.90
15596;DHT22;7898;48.658;9.068;2022-08-21T04:48:12;11.00;99.90
15596;DHT22;7898;48.658;9.068;2022-08-21T04:50:42;11.00;99.90
15596;DHT22;7898;48.658;9.068;2022-08-21T04:53:13;11.00;99.90
15596;DHT22;7898;48.658;9.068;2022-08-21T04:55:41;11.10;99.90
15596;DHT22;7898;48.658;9.068;2022-08-21T04:58:09;11.10;99.90
15596;DHT22;7898;48.658;9.068;2022-08-21T05:00:38;11.20;99.90
15596;DHT22;7898;48.658;9.068;2022-08-21T05:03:07;11.30;99.90
15596;DHT22;7898;48.658;9.068;2022-08-21T05:05:34;11.40;99.90
15596;DHT22;7898;48.658;9.068;2022-08-21T05:08:03;11.50;99.90
15596;DHT22;7898;48.658;9.068;2022-08-21T05:10:30;11.60;99.90
15596;DHT22;7898;48.658;9.068;2022-08-21T05:12:58;11.70;99.90
15596;DHT22;7898;48.658;9.068;2022-08-21T05:15:25;11.80;99.90
15596;DHT22;7898;48.658;9.068;2022-08-21T05:17:52;11.70;99.90
15596;DHT22;7898;48.658;9.068;2022-08-21T05:20:21;11.80;99.90
15596;DHT22;7898;48.658;9.068;2022-08-21T05:22:48;11.80;99.90
15596;DHT22;7898;48.658;9.068;2022-08-21T05:25:15;11.80;99.90
15596;DHT22;7898;48.658;9.068;2022-08-21T05:27:42;11.80;99.90
15596;DHT22;7898;48.658;9.068;2022-08-21T05:30:10;11.90;99.90
15596;DHT22;7898;48.658;9.068;2022-08-21T05:32:37;12.10;99.90
15596;DHT22;7898;48.658;9.068;2022-08-21T05:35:05;12.20;99.90
15596;DHT22;7898;48.658;9.068;2022-08-21T05:37:34;12.30;99.90
15596;DHT22;7898;48.658;9.068;2022-08-21T05:40:04;12.40;99.90
15596;DHT22;7898;48.658;9.068;2022-08-21T05:42:31;12.50;99.90
15596;DHT22;7898;48.658;9.068;2022-08-21T05:44:58;12.60;99.90
15596;DHT22;7898;48.658;9.068;2022-08-21T05:47:25;12.60;99.90
15596;DHT22;7898;48.658;9.068;2022-08-21T05:49:52;12.70;99.90
15596;DHT22;7898;48.658;9.068;2022-08-21T05:52:20;12.80;99.90
15596;DHT22;7898;48.658;9.068;2022-08-21T05:54:48;12.90;99.90
15596;DHT22;7898;48.658;9.068;2022-08-21T05:57:16;13.10;99.90
15596;DHT22;7898;48.658;9.068;2022-08-21T05:59:43;13.20;99.90
15596;DHT22;7898;48.658;9.068;2022-08-21T06:02:10;13.40;99.90
15596;DHT22;7898;48.658;9.068;2022-08-21T06:04:38;13.60;99.90
15596;DHT22;7898;48.658;9.068;2022-08-21T06:07:05;13.80;99.90
15596;DHT22;7898;48.658;9.068;2022-08-21T06:09:33;13.90;99.90
15596;DHT22;7898;48.658;9.068;2022-08-21T06:12:05;14.10;99.90
15596;DHT22;7898;48.658;9.068;2022-08-21T06:14:32;14.30;99.90
15596;DHT22;7898;48.658;9.068;2022-08-21T06:17:02;14.40;99.90
15596;DHT22;7898;48.658;9.068;2022-08-21T06:19:29;14.70;99.90
15596;DHT22;7898;48.658;9.068;2022-08-21T06:21:56;15.00;99.90
15596;DHT22;7898;48.658;9.068;2022-08-21T06:24:23;15.20;99.90
15596;DHT22;7898;48.658;9.068;2022-08-21T06:26:50;15.50;99.90
15596;DHT22;7898;48.658;9.068;2022-08-21T06:29:19;15.80;99.90
15596;DHT22;7898;48.658;9.068;2022-08-21T06:31:47;16.00;99.90
15596;DHT22;7898;48.658;9.068;2022-08-21T06:34:14;16.30;99.90
15596;DHT22;7898;48.658;9.068;2022-08-21T06:36:41;16.50;99.90
15596;DHT22;7898;48.658;9.068;2022-08-21T06:39:08;16.70;99.90
15596;DHT22;7898;48.658;9.068;2022-08-21T06:41:35;17.00;99.90
15596;DHT22;7898;48.658;9.068;2022-08-21T06:44:02;17.30;99.90
15596;DHT22;7898;48.658;9.068;2022-08-21T06:46:31;17.70;99.90
15596;DHT22;7898;48.658;9.068;2022-08-21T06:48:59;18.10;99.90
15596;DHT22;7898;48.658;9.068;2022-08-21T06:51:26;18.70;99.90
15596;DHT22;7898;48.658;9.068;2022-08-21T06:53:53;19.20;99.90
15596;DHT22;7898;48.658;9.068;2022-08-21T06:56:20;20.10;99.90
15596;DHT22;7898;48.658;9.068;2022-08-21T06:58:47;20.70;99.90
15596;DHT22;7898;48.658;9.068;2022-08-21T07:01:14;21.50;99.90
15596;DHT22;7898;48.658;9.068;2022-08-21T07:03:43;21.90;99.90
15596;DHT22;7898;48.658;9.068;2022-08-21T07:06:10;22.10;99.90
15596;DHT22;7898;48.658;9.068;2022-08-21T07:08:37;22.60;99.90
15596;DHT22;7898;48.658;9.068;2022-08-21T07:11:11;22.90;99.90
15596;DHT22;7898;48.658;9.068;2022-08-21T07:13:39;23.20;99.90
15596;DHT22;7898;48.658;9.068;2022-08-21T07:16:06;23.60;99.90
15596;DHT22;7898;48.658;9.068;2022-08-21T07:18:33;24.00;99.90
15596;DHT22;7898;48.658;9.068;2022-08-21T07:21:02;24.30;99.90
15596;DHT22;7898;48.658;9.068;2022-08-21T07:23:31;24.20;99.90
15596;DHT22;7898;48.658;9.068;2022-08-21T07:25:58;24.40;99.90
15596;DHT22;7898;48.658;9.068;2022-08-21T07:28:26;24.80;99.90
15596;DHT22;7898;48.658;9.068;2022-08-21T07:30:55;25.00;99.90
15596;DHT22;7898;48.658;9.068;2022-08-21T07:33:22;25.20;99.90
15596;DHT22;7898;48.658;9.068;2022-08-21T07:35:49;25.40;99.90
15596;DHT22;7898;48.658;9.068;2022-08-21T07:38:18;25.70;99.90
15596;DHT22;7898;48.658;9.068;2022-08-21T07:40:45;25.90;99.90
15596;DHT22;7898;48.658;9.068;2022-08-21T07:43:12;26.20;99.90
15596;DHT22;7898;48.658;9.068;2022-08-21T07:45:42;26.30;99.90
15596;DHT22;7898;48.658;9.068;2022-08-21T07:48:09;26.60;99.90
15596;DHT22;7898;48.658;9.068;2022-08-21T07:50:36;26.70;99.90
15596;DHT22;7898;48.658;9.068;2022-08-21T07:53:04;27.00;99.90
15596;DHT22;7898;48.658;9.068;2022-08-21T07:55:34;26.90;99.90
15596;DHT22;7898;48.658;9.068;2022-08-21T07:58:01;27.30;99.90
15596;DHT22;7898;48.658;9.068;2022-08-21T08:00:28;27.60;99.90
15596;DHT22;7898;48.658;9.068;2022-08-21T08:02:56;27.70;99.90
15596;DHT22;7898;48.658;9.068;2022-08-21T08:05:25;27.70;99.90
15596;DHT22;7898;48.658;9.068;2022-08-21T08:07:52;27.80;99.90
15596;DHT22;7898;48.658;9.068;2022-08-21T08:10:20;27.50;99.90
15596;DHT22;7898;48.658;9.068;2022-08-21T08:12:49;27.50;99.90
15596;DHT22;7898;48.658;9.068;2022-08-21T08:15:21;27.40;99.90
15596;DHT22;7898;48.658;9.068;2022-08-21T08:17:49;27.10;99.90
15596;DHT22;7898;48.658;9.068;2022-08-21T08:20:16;27.30;99.90
15596;DHT22;7898;48.658;9.068;2022-08-21T08:22:44;27.30;99.90
15596;DHT22;7898;48.658;9.068;2022-08-21T08:25:12;27.50;99.90
15596;DHT22;7898;48.658;9.068;2022-08-21T08:27:39;27.30;99.90
15596;DHT22;7898;48.658;9.068;2022-08-21T08:30:10;27.70;99.90
15596;DHT22;7898;48.658;9.068;2022-08-21T08:32:37;27.80;99.90
15596;DHT22;7898;48.658;9.068;2022-08-21T08:35:06;27.70;99.90
15596;DHT22;7898;48.658;9.068;2022-08-21T08:37:33;27.70;99.90
15596;DHT22;7898;48.658;9.068;2022-08-21T08:40:04;27.60;99.90
15596;DHT22;7898;48.658;9.068;2022-08-21T08:42:33;27.40;99.80
15596;DHT22;7898;48.658;9.068;2022-08-21T08:45:04;27.40;99.90
15596;DHT22;7898;48.658;9.068;2022-08-21T08:47:36;27.40;99.90
15596;DHT22;7898;48.658;9.068;2022-08-21T08:50:06;27.20;99.50
15596;DHT22;7898;48.658;9.068;2022-08-21T08:52:36;27.10;98.00
15596;DHT22;7898;48.658;9.068;2022-08-21T08:55:06;27.00;97.70
15596;DHT22;7898;48.658;9.068;2022-08-21T08:57:35;26.80;97.50
15596;DHT22;7898;48.658;9.068;2022-08-21T09:00:06;26.60;97.50
15596;DHT22;7898;48.658;9.068;2022-08-21T09:02:38;25.90;98.10
15596;DHT22;7898;48.658;9.068;2022-08-21T09:05:06;25.60;99.90
15596;DHT22;7898;48.658;9.068;2022-08-21T09:07:40;25.60;99.90
15596;DHT22;7898;48.658;9.068;2022-08-21T09:10:13;25.60;98.40
15596;DHT22;7898;48.658;9.068;2022-08-21T09:12:52;25.60;98.90
15596;DHT22;7898;48.658;9.068;2022-08-21T09:15:29;25.30;99.50
15596;DHT22;7898;48.658;9.068;2022-08-21T09:18:16;25.30;99.90
15596;DHT22;7898;48.658;9.068;2022-08-21T09:20:52;25.20;99.90
15596;DHT22;7898;48.658;9.068;2022-08-21T09:23:29;25.40;99.90
15596;DHT22;7898;48.658;9.068;2022-08-21T09:26:04;25.60;99.90
15596;DHT22;7898;48.658;9.068;2022-08-21T09:28:34;25.70;99.30
15596;DHT22;7898;48.658;9.068;2022-08-21T09:31:05;25.70;98.70
15596;DHT22;7898;48.658;9.068;2022-08-21T09:33:34;25.60;99.70
15596;DHT22;7898;48.658;9.068;2022-08-21T09:36:02;25.60;99.90
15596;DHT22;7898;48.658;9.068;2022-08-21T09:38:31;25.80;99.40
15596;DHT22;7898;48.658;9.068;2022-08-21T09:41:02;25.90;99.50
15596;DHT22;7898;48.658;9.068;2022-08-21T09:43:30;26.00;99.20
15596;DHT22;7898;48.658;9.068;2022-08-21T09:46:09;26.00;98.80
15596;DHT22;7898;48.658;9.068;2022-08-21T09:48:43;26.10;99.30
15596;DHT22;7898;48.658;9.068;2022-08-21T09:51:13;26.00;98.80
15596;DHT22;7898;48.658;9.068;2022-08-21T09:53:44;26.10;99.20
15596;DHT22;7898;48.658;9.068;2022-08-21T09:56:20;26.20;98.40
15596;DHT22;7898;48.658;9.068;2022-08-21T09:59:18;26.20;97.90
15596;DHT22;7898;48.658;9.068;2022-08-21T10:01:47;26.20;98.60
15596;DHT22;7898;48.658;9.068;2022-08-21T10:04:21;26.10;98.40
15596;DHT22;7898;48.658;9.068;2022-08-21T10:06:48;26.10;97.30
15596;DHT22;7898;48.658;9.068;2022-08-21T10:09:17;26.10;97.90
15596;DHT22;7898;48.658;9.068;2022-08-21T10:11:57;26.10;98.30
15596;DHT22;7898;48.658;9.068;2022-08-21T10:14:40;26.00;97.70
15596;DHT22;7898;48.658;9.068;2022-08-21T10:17:17;25.80;98.00
15596;DHT22;7898;48.658;9.068;2022-08-21T10:19:51;25.80;99.20
15596;DHT22;7898;48.658;9.068;2022-08-21T10:22:29;25.90;97.90
15596;DHT22;7898;48.658;9.068;2022-08-21T10:25:06;25.90;97.90
15596;DHT22;7898;48.658;9.068;2022-08-21T10:27:39;26.00;97.50
15596;DHT22;7898;48.658;9.068;2022-08-21T10:30:11;26.00;97.80
15596;DHT22;7898;48.658;9.068;2022-08-21T10:32:57;26.00;97.80
15596;DHT22;7898;48.658;9.068;2022-08-21T10:35:30;26.00;97.70
15596;DHT22;7898;48.658;9.068;2022-08-21T10:38:41;25.80;97.50
15596;DHT22;7898;48.658;9.068;2022-08-21T10:41:14;25.70;97.10
15596;DHT22;7898;48.658;9.068;2022-08-21T10:43:52;25.60;97.40
15596;DHT22;7898;48.658;9.068;2022-08-21T10:46:34;25.50;97.40
15596;DHT22;7898;48.658;9.068;2022-08-21T10:49:16;25.40;97.60
15596;DHT22;7898;48.658;9.068;2022-08-21T10:51:51;25.50;98.60
15596;DHT22;7898;48.658;9.068;2022-08-21T10:54:29;25.70;97.30
15596;DHT22;7898;48.658;9.068;2022-08-21T10:57:04;25.50;96.80
15596;DHT22;7898;48.658;9.068;2022-08-21T10:59:39;25.50;97.40
15596;DHT22;7898;48.658;9.068;2022-08-21T11:02:15;25.50;97.40
15596;DHT22;7898;48.658;9.068;2022-08-21T11:04:52;25.40;98.70
15596;DHT22;7898;48.658;9.068;2022-08-21T11:07:28;25.30;98.10
15596;DHT22;7898;48.658;9.068;2022-08-21T11:10:02;25.00;98.00
15596;DHT22;7898;48.658;9.068;2022-08-21T11:12:35;25.00;97.90
15596;DHT22;7898;48.658;9.068;2022-08-21T11:15:14;25.20;98.30
15596;DHT22;7898;48.658;9.068;2022-08-21T11:17:49;25.20;97.40
15596;DHT22;7898;48.658;9.068;2022-08-21T11:20:22;25.30;97.30
15596;DHT22;7898;48.658;9.068;2022-08-21T11:23:00;25.30;97.70
15596;DHT22;7898;48.658;9.068;2022-08-21T11:25:34;25.40;98.60
15596;DHT22;7898;48.658;9.068;2022-08-21T11:28:05;25.60;99.00
15596;DHT22;7898;48.658;9.068;2022-08-21T11:30:39;25.80;98.20
15596;DHT22;7898;48.658;9.068;2022-08-21T11:33:20;25.80;97.90
15596;DHT22;7898;48.658;9.068;2022-08-21T11:35:54;25.90;97.10
15596;DHT22;7898;48.658;9.068;2022-08-21T11:38:34;25.90;96.80
15596;DHT22;7898;48.658;9.068;2022-08-21T11:41:14;25.70;97.10
15596;DHT22;7898;48.658;9.068;2022-08-21T11:43:46;25.80;97.80
15596;DHT22;7898;48.658;9.068;2022-08-21T11:46:28;25.90;97.50
15596;DHT22;7898;48.658;9.068;2022-08-21T11:49:11;26.00;97.50
15596;DHT22;7898;48.658;9.068;2022-08-21T11:51:45;25.90;96.50
15596;DHT22;7898;48.658;9.068;2022-08-21T11:54:23;26.00;97.10
15596;DHT22;7898;48.658;9.068;2022-08-21T11:56:57;26.10;97.00
15596;DHT22;7898;48.658;9.068;2022-08-21T11:59:32;26.20;97.60
15596;DHT22;7898;48.658;9.068;2022-08-21T12:02:02;26.40;97.90
15596;DHT22;7898;48.658;9.068;2022-08-21T12:04:34;26.50;95.70
15596;DHT22;7898;48.658;9.068;2022-08-21T12:07:11;26.30;95.60
15596;DHT22;7898;48.658;9.068;2022-08-21T12:09:39;26.20;96.80
15596;DHT22;7898;48.658;9.068;2022-08-21T12:12:11;26.20;96.90
15596;DHT22;7898;48.658;9.068;2022-08-21T12:14:41;26.30;96.30
15596;DHT22;7898;48.658;9.068;2022-08-21T12:17:19;26.30;95.70
15596;DHT22;7898;48.658;9.068;2022-08-21T12:19:57;26.50;96.10
15596;DHT22;7898;48.658;9.068;2022-08-21T12:22:36;26.50;95.90
15596;DHT22;7898;48.658;9.068;2022-08-21T12:25:08;26.40;95.20
15596;DHT22;7898;48.658;9.068;2022-08-21T12:27:45;26.30;95.20
15596;DHT22;7898;48.658;9.068;2022-08-21T12:30:21;26.10;95.50
15596;DHT22;7898;48.658;9.068;2022-08-21T12:32:55;25.90;96.00
15596;DHT22;7898;48.658;9.068;2022-08-21T12:35:27;26.00;96.90
15596;DHT22;7898;48.658;9.068;2022-08-21T12:38:04;25.90;96.70
15596;DHT22;7898;48.658;9.068;2022-08-21T12:40:40;26.00;96.30
15596;DHT22;7898;48.658;9.068;2022-08-21T12:43:14;25.80;96.70
15596;DHT22;7898;48.658;9.068;2022-08-21T12:45:44;25.80;97.10
15596;DHT22;7898;48.658;9.068;2022-08-21T12:48:18;25.70;97.00
15596;DHT22;7898;48.658;9.068;2022-08-21T12:50:49;25.70;96.50
15596;DHT22;7898;48.658;9.068;2022-08-21T12:53:26;25.70;96.30
15596;DHT22;7898;48.658;9.068;2022-08-21T12:55:56;25.60;96.60
15596;DHT22;7898;48.658;9.068;2022-08-21T12:58:27;25.50;97.30
15596;DHT22;7898;48.658;9.068;2022-08-21T13:00:59;25.40;97.50
15596;DHT22;7898;48.658;9.068;2022-08-21T13:03:28;25.30;96.90
15596;DHT22;7898;48.658;9.068;2022-08-21T13:05:58;25.30;98.20
15596;DHT22;7898;48.658;9.068;2022-08-21T13:08:27;25.40;97.50
15596;DHT22;7898;48.658;9.068;2022-08-21T13:11:00;25.60;98.10
15596;DHT22;7898;48.658;9.068;2022-08-21T13:13:28;26.00;97.20
15596;DHT22;7898;48.658;9.068;2022-08-21T13:16:00;26.50;97.10
15596;DHT22;7898;48.658;9.068;2022-08-21T13:18:30;26.80;95.00
15596;DHT22;7898;48.658;9.068;2022-08-21T13:21:06;26.90;95.40
15596;DHT22;7898;48.658;9.068;2022-08-21T13:23:34;27.10;95.30
15596;DHT22;7898;48.658;9.068;2022-08-21T13:26:12;27.30;95.70
15596;DHT22;7898;48.658;9.068;2022-08-21T13:28:39;27.70;95.10
15596;DHT22;7898;48.658;9.068;2022-08-21T13:31:07;27.90;94.60
15596;DHT22;7898;48.658;9.068;2022-08-21T13:33:38;28.10;94.30
15596;DHT22;7898;48.658;9.068;2022-08-21T13:36:10;28.20;94.70
15596;DHT22;7898;48.658;9.068;2022-08-21T13:38:40;28.30;93.70
15596;DHT22;7898;48.658;9.068;2022-08-21T13:41:16;28.60;94.10
15596;DHT22;7898;48.658;9.068;2022-08-21T13:43:49;28.90;93.50
15596;DHT22;7898;48.658;9.068;2022-08-21T13:46:17;29.20;93.20
15596;DHT22;7898;48.658;9.068;2022-08-21T13:48:48;29.30;92.00
15596;DHT22;7898;48.658;9.068;2022-08-21T13:51:15;29.30;92.10
15596;DHT22;7898;48.658;9.068;2022-08-21T13:53:47;29.30;93.00
15596;DHT22;7898;48.658;9.068;2022-08-21T13:56:26;28.90;93.70
15596;DHT22;7898;48.658;9.068;2022-08-21T13:58:55;28.60;93.60
15596;DHT22;7898;48.658;9.068;2022-08-21T14:01:26;28.40;94.10
15596;DHT22;7898;48.658;9.068;2022-08-21T14:03:57;28.30;93.50
15596;DHT22;7898;48.658;9.068;2022-08-21T14:06:27;28.40;94.50
15596;DHT22;7898;48.658;9.068;2022-08-21T14:08:57;28.70;93.30
15596;DHT22;7898;48.658;9.068;2022-08-21T14:11:27;28.90;93.60
15596;DHT22;7898;48.658;9.068;2022-08-21T14:13:59;29.10;93.90
15596;DHT22;7898;48.658;9.068;2022-08-21T14:16:28;29.80;94.10
15596;DHT22;7898;48.658;9.068;2022-08-21T14:19:10;30.40;93.00
15596;DHT22;7898;48.658;9.068;2022-08-21T14:21:40;30.90;90.90
15596;DHT22;7898;48.658;9.068;2022-08-21T14:24:11;31.50;91.70
15596;DHT22;7898;48.658;9.068;2022-08-21T14:26:53;32.10;89.40
15596;DHT22;7898;48.658;9.068;2022-08-21T14:29:22;31.90;89.90
15596;DHT22;7898;48.658;9.068;2022-08-21T14:31:51;32.10;88.70
15596;DHT22;7898;48.658;9.068;2022-08-21T14:34:18;31.70;88.00
15596;DHT22;7898;48.658;9.068;2022-08-21T14:36:45;30.20;90.10
15596;DHT22;7898;48.658;9.068;2022-08-21T14:39:12;29.20;91.10
15596;DHT22;7898;48.658;9.068;2022-08-21T14:41:39;28.30;91.90
15596;DHT22;7898;48.658;9.068;2022-08-21T14:44:09;28.00;92.40
15596;DHT22;7898;48.658;9.068;2022-08-21T14:46:37;27.90;92.50
15596;DHT22;7898;48.658;9.068;2022-08-21T14:49:04;27.60;93.10
15596;DHT22;7898;48.658;9.068;2022-08-21T14:51:31;27.60;93.50
15596;DHT22;7898;48.658;9.068;2022-08-21T14:53:58;28.50;91.50
15596;DHT22;7898;48.658;9.068;2022-08-21T14:56:25;29.20;91.10
15596;DHT22;7898;48.658;9.068;2022-08-21T14:58:53;29.80;90.80
15596;DHT22;7898;48.658;9.068;2022-08-21T15:01:22;29.50;90.10
15596;DHT22;7898;48.658;9.068;2022-08-21T15:03:50;28.70;90.80
15596;DHT22;7898;48.658;9.068;2022-08-21T15:06:17;28.30;91.30
15596;DHT22;7898;48.658;9.068;2022-08-21T15:08:46;28.90;92.20
15596;DHT22;7898;48.658;9.068;2022-08-21T15:11:16;30.00;90.30
15596;DHT22;7898;48.658;9.068;2022-08-21T15:13:44;31.10;87.50
15596;DHT22;7898;48.658;9.068;2022-08-21T15:16:11;32.10;87.00
15596;DHT22;7898;48.658;9.068;2022-08-21T15:18:40;32.90;84.30
15596;DHT22;7898;48.658;9.068;2022-08-21T15:21:08;33.10;84.70
15596;DHT22;7898;48.658;9.068;2022-08-21T15:23:35;33.70;83.10
15596;DHT22;7898;48.658;9.068;2022-08-21T15:26:02;33.90;83.50
15596;DHT22;7898;48.658;9.068;2022-08-21T15:28:29;34.20;81.30
15596;DHT22;7898;48.658;9.068;2022-08-21T15:30:56;34.10;79.20
15596;DHT22;7898;48.658;9.068;2022-08-21T15:33:23;33.90;80.90
15596;DHT22;7898;48.658;9.068;2022-08-21T15:35:51;33.80;79.70
15596;DHT22;7898;48.658;9.068;2022-08-21T15:38:18;33.80;81.00
15596;DHT22;7898;48.658;9.068;2022-08-21T15:40:45;33.90;78.70
15596;DHT22;7898;48.658;9.068;2022-08-21T15:43:22;33.80;78.50
15596;DHT22;7898;48.658;9.068;2022-08-21T15:45:50;33.90;79.20
15596;DHT22;7898;48.658;9.068;2022-08-21T15:48:17;33.90;77.90
15596;DHT22;7898;48.658;9.068;2022-08-21T15:50:44;34.10;79.90
15596;DHT22;7898;48.658;9.068;2022-08-21T15:53:12;34.20;79.20
15596;DHT22;7898;48.658;9.068;2022-08-21T15:55:39;34.60;77.10
15596;DHT22;7898;48.658;9.068;2022-08-21T15:58:07;34.90;76.70
15596;DHT22;7898;48.658;9.068;2022-08-21T16:00:38;35.00;75.20
15596;DHT22;7898;48.658;9.068;2022-08-21T16:03:06;35.00;75.70